Time;durP1;ratioP1;P1;durP2;ratioP2;P2;SDS_P1;SDS_P2;PMS_P1;PMS_P2;Temp;Humidity;BMP_temperature;BMP_pressure;BME280_temperature;BME280_humidity;BME280_pressure;Samples;Min_cycle;Max_cycle;Signal;HPM_P1;HPM_P2
2022/03/13 00:00:49;;;;;;;7.58;4.12;;;;;;;4.42;40.30;102443.95;1634049;86;21166;-73
2022/03/13 00:03:21;;;;;;;8.33;4.08;;;;;;;4.39;40.16;102437.39;1609847;87;21039;-73
2022/03/13 00:05:49;;;;;;;;;;;;;;;4.36;40.11;102446.34;1603143;86;21060;-74
2022/03/13 00:08:24;;;;;;;8.13;4.50;;;;;;;4.33;40.05;102438.50;1618958;86;20114;-74
2022/03/13 00:11:01;;;;;;;7.75;4.25;;;;;;;4.31;40.02;102441.45;1649530;84;21008;-74
2022/03/13 00:13:34;;;;;;;8.58;4.70;;;;;;;4.29;39.84;102434.49;1654699;84;21505;-74
2022/03/13 00:16:08;;;;;;;7.47;5.15;;;;;;;4.28;39.78;102436.22;1650607;85;21097;-73
2022/03/13 00:18:41;;;;;;;8.00;4.58;;;;;;;4.27;39.68;102433.17;1625256;87;21070;-75
2022/03/13 00:21:06;;;;;;;6.97;4.80;;;;;;;4.25;39.63;102427.09;1598382;89;21287;-74
2022/03/13 00:23:34;;;;;;;9.45;5.05;;;;;;;4.24;39.63;102427.94;1586590;89;21147;-74
2022/03/13 00:26:02;;;;;;;8.78;4.87;;;;;;;4.23;39.57;102435.19;1583391;89;21169;-74
2022/03/13 00:28:29;;;;;;;6.45;4.53;;;;;;;4.20;39.53;102427.39;1588865;88;21533;-74
2022/03/13 00:30:58;;;;;;;6.67;5.00;;;;;;;4.18;39.62;102427.75;1605117;88;21050;-74
2022/03/13 00:33:25;;;;;;;9.05;5.25;;;;;;;4.20;39.63;102427.39;1619845;88;21144;-73
2022/03/13 00:35:52;;;;;;;9.30;5.05;;;;;;;4.01;40.02;102428.52;1587258;88;21079;-74
2022/03/13 00:40:51;;;;;;;9.20;5.17;;;;;;;4.18;39.93;102423.89;1560791;91;21587;-73
2022/03/13 00:43:17;;;;;;;8.30;5.08;;;;;;;4.19;39.97;102424.34;1559382;91;21164;-74
2022/03/13 00:45:47;;;;;;;9.03;5.22;;;;;;;4.19;40.04;102415.31;1567425;90;21086;-73
2022/03/13 00:48:13;;;;;;;7.03;5.05;;;;;;;4.19;40.01;102420.47;1587412;89;21125;-74
2022/03/13 00:50:40;;;;;;;8.05;4.60;;;;;;;4.07;40.13;102412.37;1584094;89;21134;-75
2022/03/13 00:53:07;;;;;;;8.70;4.90;;;;;;;4.11;40.08;102418.08;1657643;85;21066;-74
2022/03/13 00:55:34;;;;;;;7.25;4.90;;;;;;;3.99;40.32;102412.55;1652891;86;21050;-74
2022/03/13 00:58:00;;;;;;;8.60;5.60;;;;;;;4.10;40.29;102411.19;1655941;86;21155;-74
2022/03/13 01:00:28;;;;;;;9.00;5.47;;;;;;;4.13;40.16;102413.84;1660178;85;21076;-74
2022/03/13 01:02:54;;;;;;;7.78;5.08;;;;;;;4.10;40.32;102409.47;1645318;86;21053;-74
2022/03/13 01:05:24;;;;;;;10.45;5.45;;;;;;;4.03;40.47;102416.97;1669851;83;21100;-73
2022/03/13 01:07:55;;;;;;;7.72;5.25;;;;;;;3.97;40.86;102419.36;1693988;83;20993;-74
2022/03/13 01:10:25;;;;;;;8.88;5.85;;;;;;;3.90;41.33;102417.39;1701534;82;21285;-74
2022/03/13 01:12:52;;;;;;;11.35;5.70;;;;;;;3.86;41.62;102423.28;1712102;83;21089;-73
2022/03/13 01:15:20;;;;;;;8.10;5.80;;;;;;;3.87;41.70;102421.18;1704021;83;21049;-74
2022/03/13 01:17:48;;;;;;;7.85;5.47;;;;;;;3.89;41.86;102415.67;1703553;83;21165;-74
2022/03/13 01:20:21;;;;;;;11.68;6.62;;;;;;;3.90;42.20;102419.97;1700574;83;20985;-74
2022/03/13 01:22:50;;;;;;;9.58;6.00;;;;;;;3.88;42.61;102422.91;1723980;83;21042;-74
2022/03/13 01:25:18;;;;;;;10.93;6.80;;;;;;;3.90;43.19;102423.84;1637269;84;21131;-75
2022/03/13 01:27:47;;;;;;;21.52;6.97;;;;;;;3.89;43.97;102424.27;1664046;86;20999;-73
2022/03/13 01:30:14;;;;;;;12.58;6.80;;;;;;;3.89;44.50;102425.97;1644309;86;21045;-73
2022/03/13 01:32:42;;;;;;;10.35;6.55;;;;;;;3.92;44.52;102428.62;1644345;86;21049;-73
2022/03/13 01:35:09;;;;;;;12.05;7.67;;;;;;;3.94;44.46;102424.39;1643726;86;21574;-74
2022/03/13 01:37:40;;;;;;;10.45;6.70;;;;;;;3.97;44.78;102427.08;1691183;82;21107;-73
2022/03/13 01:40:11;;;;;;;11.65;7.20;;;;;;;4.02;45.28;102422.92;1731387;82;21106;-74
2022/03/13 01:45:11;;;;;;;11.35;7.47;;;;;;;4.08;45.65;102436.03;1593839;89;21162;-73
2022/03/13 01:47:38;;;;;;;12.45;8.35;;;;;;;4.10;46.05;102430.52;1589224;89;21532;-74
2022/03/13 01:50:09;;;;;;;10.95;7.33;;;;;;;4.12;46.42;102434.01;1590387;89;21028;-73
2022/03/13 01:52:40;;;;;;;12.00;7.92;;;;;;;4.13;46.65;102430.59;1589610;88;21115;-74
2022/03/13 01:55:08;;;;;;;13.22;8.15;;;;;;;4.14;46.95;102428.49;1582045;89;21063;-74
2022/03/13 01:57:37;;;;;;;13.80;8.93;;;;;;;4.16;47.00;102426.83;1590246;89;21690;-74
2022/03/13 02:00:07;;;;;;;12.10;8.53;;;;;;;4.17;47.07;102431.14;1589690;89;21048;-74
2022/03/13 02:02:35;;;;;;;13.35;8.63;;;;;;;4.19;47.26;102434.64;1591400;89;21075;-74
2022/03/13 02:05:03;;;;;;;14.07;8.75;;;;;;;4.19;47.23;102435.93;1587484;89;21091;-74
2022/03/13 02:07:35;;;;;;;13.95;8.23;;;;;;;4.21;47.18;102426.95;1611135;88;21070;-73
2022/03/13 02:10:03;;;;;;;14.63;9.18;;;;;;;4.23;47.05;102425.29;1593503;88;21809;-73
2022/03/13 02:12:32;;;;;;;12.70;8.38;;;;;;;4.20;47.01;102428.67;1609906;88;21577;-74
2022/03/13 02:15:00;;;;;;;13.05;8.05;;;;;;;4.19;47.12;102429.89;1598315;88;21071;-74
2022/03/13 02:17:35;;;;;;;13.55;9.25;;;;;;;4.17;47.06;102428.97;1593962;88;21050;-74
2022/03/13 02:20:03;;;;;;;13.78;9.43;;;;;;;4.19;46.80;102429.48;1558717;90;21120;-74
2022/03/13 02:22:31;;;;;;;12.00;8.28;;;;;;;4.20;46.87;102433.83;1585730;87;21129;-73
2022/03/13 02:24:58;;;;;;;13.38;8.58;;;;;;;4.20;46.82;102431.25;1596310;87;21094;-74
2022/03/13 02:27:27;;;;;;;11.80;7.83;;;;;;;4.20;46.81;102432.54;1595428;87;21662;-73
2022/03/13 02:29:56;;;;;;;13.45;7.70;;;;;;;4.19;46.72;102433.35;1597836;88;21149;-74
2022/03/13 02:32:24;;;;;;;15.25;10.03;;;;;;;4.17;46.83;102435.41;1604194;87;21118;-74
2022/03/13 02:34:50;;;;;;;14.78;8.78;;;;;;;4.14;47.03;102437.06;1590655;88;21053;-74
2022/03/13 02:37:40;;;;;;;13.43;8.60;;;;;;;4.12;47.05;102440.45;1598943;88;21598;-74
2022/03/13 02:40:10;;;;;;;12.78;8.93;;;;;;;4.12;46.99;102445.60;1642385;84;21090;-74
2022/03/13 02:42:37;;;;;;;10.98;7.92;;;;;;;4.14;46.75;102438.80;1716271;82;21076;-74
2022/03/13 02:45:05;;;;;;;12.43;9.13;;;;;;;4.15;46.62;102440.52;1725694;81;21070;-75
2022/03/13 02:47:32;;;;;;;12.73;8.55;;;;;;;4.13;46.60;102446.05;1729686;81;21031;-74
2022/03/13 02:49:59;;;;;;;13.08;9.08;;;;;;;4.15;46.72;102443.10;1735731;81;21579;-75
2022/03/13 02:52:25;;;;;;;11.85;8.65;;;;;;;4.13;46.97;102447.33;1728177;82;21071;-74
2022/03/13 02:54:52;;;;;;;12.07;8.43;;;;;;;4.13;47.06;102457.64;1721972;82;22882;-74
2022/03/13 02:57:19;;;;;;;17.82;9.58;;;;;;;4.14;47.05;102450.39;1755782;79;21021;-75
2022/03/13 02:59:45;;;;;;;12.13;8.63;;;;;;;4.14;47.21;102451.67;1778723;79;20994;-74
2022/03/13 03:02:12;;;;;;;12.28;7.97;;;;;;;4.12;47.17;102449.47;1789262;78;21026;-74
2022/03/13 03:04:40;;;;;;;11.75;7.65;;;;;;;4.11;46.88;102452.85;1769321;80;21003;-74
2022/03/13 03:07:07;;;;;;;11.33;7.80;;;;;;;4.10;46.29;102453.70;1737732;80;21537;-73
2022/03/13 03:09:35;;;;;;;10.88;7.92;;;;;;;4.08;46.29;102460.50;1781021;79;21058;-74
2022/03/13 03:12:04;;;;;;;15.32;8.45;;;;;;;4.08;46.44;102464.37;1779034;78;21034;-73
2022/03/13 03:14:32;;;;;;;15.32;9.10;;;;;;;4.08;46.54;102460.50;1725865;82;21066;-73
2022/03/13 03:16:59;;;;;;;12.28;7.35;;;;;;;4.09;46.27;102458.37;1724529;82;21070;-74
2022/03/13 03:19:26;;;;;;;12.30;7.60;;;;;;;4.09;46.31;102458.37;1698904;83;21154;-73
2022/03/13 03:21:53;;;;;;;12.43;7.83;;;;;;;4.08;46.27;102461.35;1732925;82;21026;-74
2022/03/13 03:24:24;;;;;;;13.93;8.65;;;;;;;4.05;46.27;102461.67;1793579;79;21054;-74
2022/03/13 03:26:53;;;;;;;12.60;8.58;;;;;;;4.02;46.59;102462.85;1783532;79;21010;-73
2022/03/13 03:29:20;;;;;;;12.23;8.25;;;;;;;4.01;46.62;102464.58;1778264;79;21038;-74
2022/03/13 03:31:48;;;;;;;11.85;7.67;;;;;;;4.01;46.62;102462.41;1791949;79;21485;-74
2022/03/13 03:34:21;;;;;;;12.43;8.98;;;;;;;3.99;46.86;102459.79;1779750;80;21551;-74
2022/03/13 03:36:52;;;;;;;12.80;8.43;;;;;;;3.98;46.85;102462.30;1754624;81;21104;-74
2022/03/13 03:39:20;;;;;;;11.85;7.15;;;;;;;4.00;46.92;102461.52;1690782;83;21026;-74
2022/03/13 03:41:49;;;;;;;11.25;7.58;;;;;;;4.01;47.14;102454.68;1680191;83;21089;-74
2022/03/13 03:44:17;;;;;;;12.45;7.62;;;;;;;4.02;47.22;102457.30;1689020;84;21118;-74
2022/03/13 03:46:44;;;;;;;12.90;7.78;;;;;;;4.05;47.25;102461.67;1692457;84;21565;-74
2022/03/13 03:49:11;;;;;;;10.72;7.17;;;;;;;4.10;47.26;102466.58;1691301;83;21109;-75
2022/03/13 03:51:39;;;;;;;11.78;8.18;;;;;;;4.15;47.26;102467.58;1666522;84;21605;-76
2022/03/13 03:54:07;;;;;;;12.40;7.70;;;;;;;4.15;47.22;102468.86;1688892;84;21002;-74
2022/03/13 03:56:34;;;;;;;11.68;8.28;;;;;;;4.15;47.31;102468.86;1686391;84;21094;-74
2022/03/13 03:59:01;;;;;;;10.25;7.35;;;;;;;4.14;47.36;102467.13;1692140;83;21077;-73
2022/03/13 04:01:38;;;;;;;12.88;7.53;;;;;;;4.14;47.26;102467.13;1692040;84;21672;-75
2022/03/13 04:04:07;;;;;;;10.55;7.58;;;;;;;4.16;47.10;102471.92;1605947;88;21065;-73
2022/03/13 04:06:40;;;;;;;12.23;7.72;;;;;;;4.17;46.99;102467.20;1610008;88;21081;-74
2022/03/13 04:09:07;;;;;;;11.90;7.47;;;;;;;4.15;46.87;102471.44;1605725;88;21062;-73
2022/03/13 04:11:35;;;;;;;10.38;7.40;;;;;;;4.12;46.71;102468.78;1604089;88;21050;-74
2022/03/13 04:14:02;;;;;;;10.20;6.87;;;;;;;4.11;46.73;102474.75;1610372;88;21037;-74
2022/03/13 04:16:29;;;;;;;14.23;8.20;;;;;;;4.11;46.71;102474.34;1609886;87;21235;-73
2022/03/13 04:18:57;;;;;;;11.43;7.17;;;;;;;4.13;46.83;102478.25;1609835;88;21121;-74
2022/03/13 04:21:25;;;;;;;11.05;8.00;;;;;;;4.13;46.88;102475.67;1606109;88;21077;-74
2022/03/13 04:23:51;;;;;;;11.18;7.78;;;;;;;4.14;46.86;102481.30;1607745;88;21002;-74
2022/03/13 04:26:18;;;;;;;10.78;7.25;;;;;;;4.12;47.01;102481.66;1609131;88;21070;-74
2022/03/13 04:28:45;;;;;;;11.28;6.70;;;;;;;4.11;47.08;102479.90;1572534;90;21636;-74
2022/03/13 04:31:13;;;;;;;10.18;7.55;;;;;;;4.08;47.11;102482.39;1555498;91;21098;-73
2022/03/13 04:33:41;;;;;;;10.68;7.20;;;;;;;4.06;47.46;102486.19;1568733;90;21096;-73
2022/03/13 04:36:13;;;;;;;10.85;7.55;;;;;;;4.05;47.62;102484.86;1617391;86;21073;-73
2022/03/13 04:38:41;;;;;;;10.85;7.33;;;;;;;4.04;47.73;102477.94;1646060;85;22218;-74
2022/03/13 04:41:08;;;;;;;10.40;6.87;;;;;;;4.03;47.92;102483.94;1646208;85;21081;-74
2022/03/13 04:43:37;;;;;;;10.93;7.00;;;;;;;4.02;48.07;102486.91;1644222;86;21053;-73
2022/03/13 04:46:05;;;;;;;10.65;7.30;;;;;;;4.01;48.24;102486.47;1644204;86;21541;-74
2022/03/13 04:48:34;;;;;;;8.50;7.30;;;;;;;4.03;48.36;102489.09;1634049;86;21074;-73
2022/03/13 04:51:00;;;;;;;10.13;7.47;;;;;;;4.03;48.51;102495.13;1641246;86;21138;-74
2022/03/13 04:53:28;;;;;;;10.25;7.50;;;;;;;4.05;48.65;102484.86;1641083;85;21553;-73
2022/03/13 04:55:55;;;;;;;12.53;8.00;;;;;;;4.07;48.85;102492.22;1643352;85;21076;-74
2022/03/13 04:58:24;;;;;;;12.43;7.20;;;;;;;4.07;49.09;102497.38;1641443;86;21101;-75
2022/03/13 05:00:53;;;;;;;9.45;6.87;;;;;;;4.09;49.22;102499.59;1672382;83;21055;-74
2022/03/13 05:03:22;;;;;;;9.85;6.80;;;;;;;4.07;49.31;102494.80;1698163;82;21043;-73
2022/03/13 05:05:49;;;;;;;10.20;7.35;;;;;;;4.06;49.42;102502.93;1731145;81;21558;-73
2022/03/13 05:08:17;;;;;;;9.23;6.67;;;;;;;4.09;49.46;102503.45;1733719;80;21013;-74
2022/03/13 05:10:47;;;;;;;8.63;6.15;;;;;;;4.11;49.48;102508.23;1718179;82;21110;-73
2022/03/13 05:13:16;;;;;;;12.18;7.30;;;;;;;4.12;49.32;102505.70;1721211;82;21012;-74
2022/03/13 05:15:44;;;;;;;12.90;7.50;;;;;;;4.14;49.42;102509.20;1717465;82;21023;-74
2022/03/13 05:18:12;;;;;;;11.50;7.70;;;;;;;4.16;49.59;102508.39;1713590;82;21535;-73
2022/03/13 05:20:39;;;;;;;10.65;7.62;;;;;;;4.18;49.80;102515.35;1718142;82;21082;-74
2022/03/13 05:23:08;;;;;;;10.95;7.15;;;;;;;4.20;49.88;102511.13;1720376;82;21030;-73
2022/03/13 05:25:38;;;;;;;12.28;8.10;;;;;;;4.23;49.94;102518.93;1727611;82;20983;-74
2022/03/13 05:28:06;;;;;;;8.03;6.60;;;;;;;4.27;50.12;102526.34;1708598;81;21431;-74
2022/03/13 05:30:34;;;;;;;10.63;6.58;;;;;;;4.30;50.23;102525.16;1710230;82;22324;-75
2022/03/13 05:33:02;;;;;;;10.15;7.08;;;;;;;4.35;50.33;102532.20;1717270;82;21530;-74
2022/03/13 05:35:29;;;;;;;9.68;6.47;;;;;;;4.39;50.35;102532.76;1713911;82;21019;-74
2022/03/13 05:37:56;;;;;;;9.05;6.28;;;;;;;4.40;50.49;102535.81;1712159;82;21592;-74
2022/03/13 05:40:23;;;;;;;10.48;6.87;;;;;;;4.40;50.62;102538.39;1713215;82;21035;-76
2022/03/13 05:42:55;;;;;;;11.28;6.22;;;;;;;4.40;50.58;102543.55;1722990;82;21039;-74
2022/03/13 05:45:25;;;;;;;9.18;6.58;;;;;;;4.39;50.71;102539.20;1775690;79;21483;-74
2022/03/13 05:47:54;;;;;;;8.90;6.37;;;;;;;4.42;50.71;102544.47;1760705;79;21075;-74
2022/03/13 05:50:21;;;;;;;9.25;5.65;;;;;;;4.44;50.67;102549.25;1753397;80;21040;-75
2022/03/13 05:52:49;;;;;;;7.00;5.03;;;;;;;4.46;50.67;102547.60;1787669;79;21038;-75
2022/03/13 05:55:17;;;;;;;7.42;5.00;;;;;;;4.51;50.57;102545.17;1789730;79;21522;-75
2022/03/13 05:57:43;;;;;;;7.40;5.30;;;;;;;4.56;50.33;102544.88;1785407;79;21011;-72
2022/03/13 06:00:13;;;;;;;11.05;5.03;;;;;;;4.57;50.35;102552.69;1783182;79;20995;-75
2022/03/13 06:02:46;;;;;;;5.45;4.87;;;;;;;4.54;50.42;102552.58;1781868;79;20991;-72
2022/03/13 06:05:13;;;;;;;7.20;4.42;;;;;;;4.57;50.36;102557.84;1777564;79;21505;-73
2022/03/13 06:07:40;;;;;;;8.28;6.28;;;;;;;4.61;50.49;102554.53;1787616;78;21031;-74
2022/03/13 06:10:08;;;;;;;7.97;5.30;;;;;;;4.65;50.49;102561.53;1767770;80;21021;-73
2022/03/13 06:12:36;;;;;;;7.95;5.90;;;;;;;4.79;50.48;102569.67;1773781;79;21078;-72
2022/03/13 06:15:05;;;;;;;9.13;5.78;;;;;;;4.97;50.25;102575.39;1771057;79;21063;-72
2022/03/13 06:17:32;;;;;;;8.15;5.83;;;;;;;5.07;50.09;102573.97;1759077;80;20978;-72
2022/03/13 06:19:59;;;;;;;7.17;6.05;;;;;;;5.14;50.10;102573.30;1773586;80;21122;-73
2022/03/13 06:22:26;;;;;;;9.20;6.00;;;;;;;5.27;49.86;102574.12;1767783;80;21042;-72
2022/03/13 06:24:53;;;;;;;10.03;6.22;;;;;;;5.40;49.71;102578.82;1779268;79;21007;-74
2022/03/13 06:27:22;;;;;;;7.90;5.72;;;;;;;5.52;49.64;102572.70;1769116;79;21477;-74
2022/03/13 06:29:49;;;;;;;7.40;5.33;;;;;;;5.75;49.38;102578.05;1792342;79;21568;-73
2022/03/13 06:32:16;;;;;;;7.45;6.00;;;;;;;6.03;48.74;102574.12;1781309;79;21019;-72
2022/03/13 06:34:43;;;;;;;9.63;6.10;;;;;;;6.26;48.14;102570.41;1785605;79;21019;-73
2022/03/13 06:37:10;;;;;;;7.35;5.97;;;;;;;6.48;47.79;102582.13;1772591;79;20993;-73
2022/03/13 06:39:37;;;;;;;6.90;6.15;;;;;;;6.71;47.36;102585.25;1759254;80;21042;-72
2022/03/13 06:42:04;;;;;;;9.55;6.33;;;;;;;6.86;46.92;102581.28;1772775;80;21475;-73
2022/03/13 06:44:31;;;;;;;8.10;5.58;;;;;;;7.01;46.55;102580.74;1777042;80;21026;-73
2022/03/13 06:46:59;;;;;;;8.38;5.40;;;;;;;7.15;46.20;102574.17;1767448;79;21501;-73
2022/03/13 06:49:26;;;;;;;6.87;5.70;;;;;;;7.29;46.15;102575.33;1771992;80;21020;-73
2022/03/13 06:51:52;;;;;;;9.40;6.10;;;;;;;7.51;45.79;102576.61;1755511;80;21034;-73
2022/03/13 06:54:19;;;;;;;9.18;5.78;;;;;;;7.70;45.35;102580.91;1774811;80;20983;-74
2022/03/13 06:56:48;;;;;;;6.65;5.40;;;;;;;7.79;45.17;102574.58;1793499;79;20999;-73
2022/03/13 06:59:14;;;;;;;7.10;5.53;;;;;;;7.87;45.00;102577.33;1785318;79;21057;-73
2022/03/13 07:01:41;;;;;;;6.35;5.03;;;;;;;7.97;45.05;102576.64;1783797;79;21049;-74
2022/03/13 07:04:08;;;;;;;5.90;5.30;;;;;;;8.08;44.92;102581.58;1777826;79;21009;-74
2022/03/13 07:06:35;;;;;;;7.08;5.28;;;;;;;8.21;44.63;102588.31;1772253;79;21015;-74
2022/03/13 07:09:03;;;;;;;8.68;5.28;;;;;;;8.29;44.46;102591.47;1770974;79;21573;-73
2022/03/13 07:11:33;;;;;;;7.72;5.80;;;;;;;8.22;44.47;102592.64;1771843;80;21078;-74
2022/03/13 07:14:02;;;;;;;6.03;4.90;;;;;;;8.13;44.69;102592.50;1765602;80;20979;-74
2022/03/13 07:16:28;;;;;;;7.33;5.03;;;;;;;8.08;44.83;102591.53;1772800;80;21016;-74
2022/03/13 07:18:56;;;;;;;6.33;4.97;;;;;;;8.01;44.89;102590.11;1773488;80;21110;-74
2022/03/13 07:21:23;;;;;;;6.25;5.10;;;;;;;7.82;45.20;102591.49;1767903;80;21046;-73
2022/03/13 07:23:50;;;;;;;6.50;4.50;;;;;;;7.57;45.76;102595.75;1788893;79;20967;-74
2022/03/13 07:26:16;;;;;;;7.35;4.90;;;;;;;7.34;46.26;102602.17;1781608;79;21051;-73
2022/03/13 07:28:43;;;;;;;6.33;5.03;;;;;;;7.09;46.79;102599.94;1775268;79;21069;-74
2022/03/13 07:31:10;;;;;;;5.47;4.33;;;;;;;6.87;47.34;102605.03;1773091;80;21558;-73
2022/03/13 07:33:37;;;;;;;7.45;4.90;;;;;;;6.79;47.81;102605.28;1783237;79;20979;-72
2022/03/13 07:36:04;;;;;;;6.47;4.97;;;;;;;6.75;48.14;102606.47;1761509;79;21163;-73
2022/03/13 07:38:32;;;;;;;7.22;5.17;;;;;;;6.68;48.40;102611.06;1784696;79;21040;-72
2022/03/13 07:40:58;;;;;;;6.37;4.47;;;;;;;6.54;48.59;102612.89;1782555;79;21029;-73
2022/03/13 07:43:25;;;;;;;5.17;4.50;;;;;;;6.49;49.20;102613.18;1778216;79;20994;-73
2022/03/13 07:45:52;;;;;;;5.28;4.58;;;;;;;6.52;49.33;102615.86;1779988;79;21034;-72
2022/03/13 07:48:19;;;;;;;6.17;5.05;;;;;;;6.58;49.42;102622.47;1775888;79;21039;-72
2022/03/13 07:50:45;;;;;;;7.12;5.28;;;;;;;6.61;49.56;102622.09;1778359;79;21022;-73
2022/03/13 07:53:12;;;;;;;5.92;4.33;;;;;;;6.62;49.61;102625.11;1793018;79;21558;-72
2022/03/13 07:55:38;;;;;;;6.55;4.47;;;;;;;6.63;49.59;102623.00;1785290;79;21022;-73
2022/03/13 07:58:05;;;;;;;6.42;4.78;;;;;;;6.63;49.77;102624.30;1793302;79;21533;-72
2022/03/13 08:00:31;;;;;;;6.60;4.75;;;;;;;6.63;49.88;102626.87;1728295;82;21005;-73
2022/03/13 08:02:58;;;;;;;6.37;5.15;;;;;;;6.61;50.03;102624.27;1730991;82;21089;-72
2022/03/13 08:05:24;;;;;;;6.42;5.20;;;;;;;6.57;50.01;102631.05;1716426;82;21023;-72
2022/03/13 08:07:52;;;;;;;6.67;5.33;;;;;;;6.47;50.30;102635.55;1779603;79;21012;-72
2022/03/13 08:12:50;;;;;;;6.75;4.75;;;;;;;6.33;50.92;102634.33;1742769;81;21058;-73
2022/03/13 08:15:17;;;;;;;5.92;4.90;;;;;;;6.32;51.18;102631.72;1752929;81;21517;-72
2022/03/13 08:17:45;;;;;;;8.25;5.10;;;;;;;6.36;51.26;102639.59;1737972;82;21077;-72
2022/03/13 08:20:12;;;;;;;6.00;4.90;;;;;;;6.43;51.36;102631.14;1737604;82;21058;-72
2022/03/13 08:22:41;;;;;;;7.20;5.25;;;;;;;6.52;51.21;102643.42;1725911;82;21111;-72
2022/03/13 08:25:08;;;;;;;8.10;6.33;;;;;;;6.59;50.98;102642.31;1738235;80;21240;-72
2022/03/13 08:27:35;;;;;;;8.80;5.72;;;;;;;6.65;50.94;102645.48;1743646;81;21060;-72
2022/03/13 08:30:03;;;;;;;6.60;5.55;;;;;;;6.72;51.00;102646.06;1748431;80;21081;-72
2022/03/13 08:32:31;;;;;;;6.65;5.42;;;;;;;6.81;50.74;102649.30;1734475;81;21581;-73
2022/03/13 08:34:58;;;;;;;10.00;6.15;;;;;;;6.84;50.63;102650.23;1724296;81;21099;-73
2022/03/13 08:37:25;;;;;;;7.28;6.20;;;;;;;6.88;50.58;102658.97;1744688;81;20997;-73
2022/03/13 08:39:51;;;;;;;7.83;6.20;;;;;;;6.90;50.51;102659.88;1732520;81;21044;-72
2022/03/13 08:42:18;;;;;;;9.60;6.90;;;;;;;6.96;50.37;102663.90;1741164;80;21084;-73
2022/03/13 08:44:44;;;;;;;8.63;6.85;;;;;;;7.00;50.21;102661.84;1731996;81;21505;-73
2022/03/13 08:47:11;;;;;;;7.55;6.40;;;;;;;7.08;50.08;102665.47;1743160;81;21045;-73
2022/03/13 08:49:39;;;;;;;13.10;7.58;;;;;;;7.13;49.83;102665.17;1722200;83;21128;-73
2022/03/13 08:52:07;;;;;;;8.70;7.00;;;;;;;7.16;49.78;102663.92;1730492;81;21065;-72
2022/03/13 08:54:35;;;;;;;9.45;7.80;;;;;;;7.23;49.47;102665.83;1743531;81;21057;-73
2022/03/13 08:57:04;;;;;;;9.35;7.42;;;;;;;7.27;49.38;102663.75;1745796;81;21556;-73
2022/03/13 08:59:37;;;;;;;8.63;7.08;;;;;;;7.34;49.27;102667.80;1729666;81;21025;-73
2022/03/13 09:01:59;;;;;;;9.30;7.50;;;;;;;7.40;49.11;102669.63;1741914;81;21095;-73
2022/03/13 09:04:27;;;;;;;10.15;7.58;;;;;;;7.46;49.20;102669.77;1734759;80;22360;-72
2022/03/13 09:06:54;;;;;;;9.15;7.50;;;;;;;7.56;49.32;102671.73;1732759;81;21025;-74
2022/03/13 09:09:22;;;;;;;8.28;7.37;;;;;;;7.65;49.09;102669.31;1768008;79;21128;-73
2022/03/13 09:11:53;;;;;;;9.60;7.45;;;;;;;7.75;48.73;102667.80;1767926;79;20988;-73
2022/03/13 09:14:20;;;;;;;7.95;7.15;;;;;;;7.81;48.69;102664.88;1788625;79;21007;-72
2022/03/13 09:16:48;;;;;;;11.30;7.78;;;;;;;7.88;48.61;102665.47;1766472;80;21006;-72
2022/03/13 09:19:14;;;;;;;9.98;7.95;;;;;;;7.93;48.61;102663.83;1757757;79;21098;-72
2022/03/13 09:21:42;;;;;;;8.78;7.28;;;;;;;7.94;48.42;102663.00;1789718;79;21019;-73
2022/03/13 09:24:09;;;;;;;8.23;7.33;;;;;;;7.94;48.43;102665.59;1792036;79;21010;-72
2022/03/13 09:26:42;;;;;;;9.48;7.30;;;;;;;7.96;48.56;102673.39;1778036;79;21026;-74
2022/03/13 09:29:09;;;;;;;;;;;;;;;7.99;48.42;102663.09;1795236;79;21003;-73
2022/03/13 09:31:36;;;;;;;8.30;6.33;;;;;;;8.04;48.45;102672.69;1788259;79;20102;-73
2022/03/13 09:34:03;;;;;;;8.58;6.95;;;;;;;8.10;48.27;102675.40;1760204;79;21501;-73
2022/03/13 09:36:36;;;;;;;10.55;9.08;;;;;;;8.09;48.24;102671.08;1768459;79;21082;-72
2022/03/13 09:38:59;;;;;;;10.88;9.03;;;;;;;8.05;48.37;102670.98;1772908;80;21023;-73
2022/03/13 09:41:26;;;;;;;8.70;7.65;;;;;;;8.02;48.71;102676.97;1772830;79;21549;-72
2022/03/13 09:43:53;;;;;;;7.97;7.17;;;;;;;8.04;48.72;102667.92;1782499;78;21046;-72
2022/03/13 09:46:19;;;;;;;7.47;6.78;;;;;;;8.06;48.78;102673.59;1795484;79;21093;-73
2022/03/13 09:48:46;;;;;;;9.70;7.67;;;;;;;8.10;48.56;102677.11;1778608;79;20989;-73
2022/03/13 09:51:14;;;;;;;8.10;6.87;;;;;;;8.12;48.54;102676.30;1770754;79;20982;-74
2022/03/13 09:53:41;;;;;;;7.55;6.75;;;;;;;8.11;48.68;102676.28;1778550;80;21578;-73
2022/03/13 09:56:07;;;;;;;8.63;7.08;;;;;;;8.10;48.65;102670.22;1767286;79;20986;-73
2022/03/13 09:58:34;;;;;;;8.68;7.87;;;;;;;8.08;48.71;102677.09;1772378;79;21015;-73
2022/03/13 10:01:01;;;;;;;8.18;6.60;;;;;;;8.03;48.53;102676.15;1780115;79;20995;-72
2022/03/13 10:03:29;;;;;;;8.45;7.28;;;;;;;7.97;48.55;102673.86;1736660;82;21090;-73
2022/03/13 10:05:56;;;;;;;9.10;7.35;;;;;;;7.90;48.65;102671.56;1746527;81;21011;-72
2022/03/13 10:08:31;;;;;;;7.97;6.62;;;;;;;7.87;48.71;102684.89;1726767;82;21046;-73
2022/03/13 10:10:58;;;;;;;9.78;6.70;;;;;;;7.81;48.70;102682.18;1728945;81;21539;-73
2022/03/13 10:13:43;;;;;;;7.62;6.47;;;;;;;7.78;48.76;102686.88;1725274;82;20979;-73
2022/03/13 10:16:17;;;;;;;8.70;6.90;;;;;;;7.78;48.68;102680.80;1731552;81;21026;-73
2022/03/13 10:18:46;;;;;;;7.62;6.78;;;;;;;7.76;48.80;102684.67;1683671;83;21010;-73
2022/03/13 10:21:16;;;;;;;6.95;6.25;;;;;;;7.78;48.95;102686.88;1675632;84;21109;-72
2022/03/13 10:23:44;;;;;;;7.90;6.42;;;;;;;7.83;48.82;102687.82;1695997;83;21059;-73
2022/03/13 10:26:12;;;;;;;10.58;6.95;;;;;;;7.88;48.96;102687.91;1708432;82;21203;-73
2022/03/13 10:28:40;;;;;;;9.53;6.65;;;;;;;7.92;49.06;102688.02;1716234;82;21081;-73
2022/03/13 10:31:11;;;;;;;8.93;5.92;;;;;;;7.99;48.77;102686.01;1721106;82;21396;-72
2022/03/13 10:33:52;;;;;;;8.95;6.47;;;;;;;8.02;48.54;102682.16;1728242;82;21019;-72
2022/03/13 10:36:21;;;;;;;7.90;5.95;;;;;;;8.01;48.46;102682.14;1731588;82;21058;-73
2022/03/13 10:38:50;;;;;;;6.58;5.70;;;;;;;8.06;48.51;102686.56;1730006;82;21110;-73
2022/03/13 10:41:17;;;;;;;8.03;5.72;;;;;;;8.13;48.34;102691.03;1726729;82;21121;-72
2022/03/13 10:43:57;;;;;;;6.97;6.28;;;;;;;8.18;48.03;102684.19;1714887;82;21006;-72
2022/03/13 10:46:32;;;;;;;7.85;5.40;;;;;;;8.21;48.15;102684.27;1716290;82;21034;-72
2022/03/13 10:49:00;;;;;;;7.33;5.65;;;;;;;8.28;47.96;102685.70;1717919;82;21017;-73
2022/03/13 10:51:41;;;;;;;7.95;6.08;;;;;;;8.35;47.82;102685.83;1718042;82;21092;-73
2022/03/13 10:54:07;;;;;;;8.15;5.62;;;;;;;8.38;47.52;102687.20;1718572;81;21096;-73
2022/03/13 10:56:36;;;;;;;7.85;5.92;;;;;;;8.41;47.29;102692.42;1715762;82;21026;-73
2022/03/13 10:59:19;;;;;;;9.30;5.85;;;;;;;8.39;47.10;102689.38;1704644;83;20986;-73
2022/03/13 11:01:53;;;;;;;7.10;5.40;;;;;;;8.41;47.17;102688.98;1765304;78;21569;-75
2022/03/13 11:04:22;;;;;;;9.43;6.75;;;;;;;8.46;47.02;102691.22;1715937;82;21531;-74
2022/03/13 11:06:50;;;;;;;8.33;6.45;;;;;;;8.48;46.94;102685.62;1721128;83;21059;-75
2022/03/13 11:09:17;;;;;;;7.92;5.70;;;;;;;8.50;46.69;102686.52;1724644;83;21087;-74
2022/03/13 11:11:44;;;;;;;6.62;5.55;;;;;;;8.46;46.50;102688.20;1719705;82;21519;-75
2022/03/13 11:14:11;;;;;;;6.70;5.47;;;;;;;8.47;46.68;102691.68;1720003;82;21055;-75
2022/03/13 11:16:40;;;;;;;6.15;5.42;;;;;;;8.50;46.44;102687.41;1697734;83;21064;-75
2022/03/13 11:19:08;;;;;;;6.20;5.37;;;;;;;8.52;46.14;102690.02;1722343;83;21059;-75
2022/03/13 11:21:36;;;;;;;6.83;5.37;;;;;;;8.55;46.18;102692.69;1692154;83;21067;-74
2022/03/13 11:24:04;;;;;;;8.03;5.78;;;;;;;8.60;46.05;102696.21;1719419;83;21014;-74
2022/03/13 11:26:31;;;;;;;6.55;5.67;;;;;;;8.62;45.43;102694.52;1704223;83;21028;-74
2022/03/13 11:29:00;;;;;;;6.05;4.65;;;;;;;8.55;45.10;102696.58;1723335;83;21012;-76
2022/03/13 11:31:35;;;;;;;6.10;5.22;;;;;;;8.50;45.08;102699.50;1722400;82;21158;-74
2022/03/13 11:34:16;;;;;;;7.25;5.15;;;;;;;8.40;45.29;102701.06;1717483;82;21091;-74
2022/03/13 11:36:49;;;;;;;6.05;4.83;;;;;;;8.31;45.72;102701.30;1717904;82;21128;-75
2022/03/13 11:39:31;;;;;;;8.80;6.50;;;;;;;8.28;46.11;102703.86;1689507;84;21101;-75
2022/03/13 11:41:59;;;;;;;6.20;5.17;;;;;;;8.27;46.44;102699.50;1695561;81;21561;-75
2022/03/13 11:44:35;;;;;;;5.72;5.00;;;;;;;8.30;46.37;102703.46;1733148;81;21155;-74